This is the latest recevied weather packets stored in our database for station/object OK1FET-16. If no packets are shown the sender has not sent any weather packets the latest 10 day(s).
| Time | Temp. | Humidity | Pressure | Rain* | Wind** | Luminosity | Snow |
|---|---|---|---|---|---|---|---|
| 1777887285 | 17.22° C | 44% | 1013.7 hPa | - | - | - | - |
| 1777887019 | 16.67° C | 44% | 1013.7 hPa | - | - | - | - |
| 1777887019 | 16.67° C | 44% | 1013.7 hPa | - | - | - | - |
| 1777887019 | 16.67° C | 44% | 1013.7 hPa | - | - | - | - |
| 1777887015 | 16.67° C | 44% | 1013.7 hPa | - | - | - | - |
| 1777886748 | 17.22° C | 48% | 1013.7 hPa | - | - | - | - |
| 1777886748 | 17.22° C | 48% | 1013.7 hPa | - | - | - | - |
| 1777886745 | 17.22° C | 48% | 1013.7 hPa | - | - | - | - |
| 1777886478 | 17.78° C | 46% | 1013.7 hPa | - | - | - | - |
| 1777886478 | 17.78° C | 46% | 1013.7 hPa | - | - | - | - |
| 1777886478 | 17.78° C | 46% | 1013.7 hPa | - | - | - | - |
| 1777879717 | 13.89° C | 49% | 1013.6 hPa | - | - | - | - |
| 1777875127 | 13.33° C | 49% | 1013 hPa | - | - | - | - |
| 1777850288 | 14.44° C | 41% | 1011.8 hPa | - | - | - | - |
| 1777838399 | 17.78° C | 34% | 1011.5 hPa | - | - | - | - |
| 1777822434 | 21.11° C | 27% | 1011.6 hPa | - | - | - | - |
| 1777821896 | 21.67° C | 27% | 1011.8 hPa | - | - | - | - |
| 1777821896 | 21.67° C | 27% | 1011.8 hPa | - | - | - | - |
| 1777821896 | 21.67° C | 27% | 1011.8 hPa | - | - | - | - |
| 1777821621 | 21.67° C | 27% | 1011.8 hPa | - | - | - | - |
| 1777821350 | 21.67° C | 28% | 1011.9 hPa | - | - | - | - |
| 1777820266 | 21.67° C | 27% | 1011.9 hPa | - | - | - | - |
| 1777819999 | 21.67° C | 27% | 1012.1 hPa | - | - | - | - |
| 1777819999 | 21.67° C | 27% | 1012.1 hPa | - | - | - | - |
| 1777819999 | 21.67° C | 27% | 1012.1 hPa | - | - | - | - |
* Rain since midnight (hover to see other rain measurements)
** Current wind speed in m/s (hover to see current wind gust speed)